sensor_id;sensor_type;location;lat;lon;timestamp;P1;durP1;ratioP1;P2;durP2;ratioP2
11386;SDS011;5748;53.102;8.456;2022-12-31T00:01:36;2.00;;;1.90;;
11386;SDS011;5748;53.102;8.456;2022-12-31T00:04:22;2.10;;;1.90;;
11386;SDS011;5748;53.102;8.456;2022-12-31T00:06:49;1.83;;;1.73;;
11386;SDS011;5748;53.102;8.456;2022-12-31T00:09:16;1.90;;;1.80;;
11386;SDS011;5748;53.102;8.456;2022-12-31T00:11:49;1.73;;;1.63;;
11386;SDS011;5748;53.102;8.456;2022-12-31T00:14:16;1.60;;;1.50;;
11386;SDS011;5748;53.102;8.456;2022-12-31T00:16:43;1.70;;;1.60;;
11386;SDS011;5748;53.102;8.456;2022-12-31T00:19:10;1.87;;;1.50;;
11386;SDS011;5748;53.102;8.456;2022-12-31T00:21:39;1.60;;;1.50;;
11386;SDS011;5748;53.102;8.456;2022-12-31T00:24:06;1.97;;;1.70;;
11386;SDS011;5748;53.102;8.456;2022-12-31T00:26:35;1.80;;;1.70;;
11386;SDS011;5748;53.102;8.456;2022-12-31T00:29:02;1.53;;;1.43;;
11386;SDS011;5748;53.102;8.456;2022-12-31T00:31:31;1.60;;;1.50;;
11386;SDS011;5748;53.102;8.456;2022-12-31T00:34:00;1.67;;;1.57;;
11386;SDS011;5748;53.102;8.456;2022-12-31T00:36:28;2.03;;;1.93;;
11386;SDS011;5748;53.102;8.456;2022-12-31T00:38:59;1.83;;;1.73;;
11386;SDS011;5748;53.102;8.456;2022-12-31T00:41:28;2.30;;;2.10;;
11386;SDS011;5748;53.102;8.456;2022-12-31T00:44:02;1.90;;;1.80;;
11386;SDS011;5748;53.102;8.456;2022-12-31T00:46:29;1.80;;;1.70;;
11386;SDS011;5748;53.102;8.456;2022-12-31T00:48:56;1.90;;;1.80;;
11386;SDS011;5748;53.102;8.456;2022-12-31T00:51:23;2.07;;;1.50;;
11386;SDS011;5748;53.102;8.456;2022-12-31T00:53:52;1.47;;;1.37;;
11386;SDS011;5748;53.102;8.456;2022-12-31T00:59:01;1.60;;;1.50;;
11386;SDS011;5748;53.102;8.456;2022-12-31T01:01:29;1.33;;;1.23;;
11386;SDS011;5748;53.102;8.456;2022-12-31T01:06:37;1.50;;;1.40;;
11386;SDS011;5748;53.102;8.456;2022-12-31T01:09:04;1.50;;;1.33;;
11386;SDS011;5748;53.102;8.456;2022-12-31T01:11:32;1.47;;;1.37;;
11386;SDS011;5748;53.102;8.456;2022-12-31T01:14:02;1.40;;;1.30;;
11386;SDS011;5748;53.102;8.456;2022-12-31T01:16:32;1.83;;;1.60;;
11386;SDS011;5748;53.102;8.456;2022-12-31T01:19:03;1.57;;;1.47;;
11386;SDS011;5748;53.102;8.456;2022-12-31T01:21:35;1.30;;;1.20;;
11386;SDS011;5748;53.102;8.456;2022-12-31T01:24:04;1.40;;;1.30;;
11386;SDS011;5748;53.102;8.456;2022-12-31T01:26:32;1.50;;;1.40;;
11386;SDS011;5748;53.102;8.456;2022-12-31T01:29:01;1.20;;;1.10;;
11386;SDS011;5748;53.102;8.456;2022-12-31T01:31:30;1.60;;;1.50;;
11386;SDS011;5748;53.102;8.456;2022-12-31T01:34:07;1.50;;;1.40;;
11386;SDS011;5748;53.102;8.456;2022-12-31T01:36:40;1.70;;;1.60;;
11386;SDS011;5748;53.102;8.456;2022-12-31T01:39:08;1.40;;;1.30;;
11386;SDS011;5748;53.102;8.456;2022-12-31T01:41:37;1.73;;;1.63;;
11386;SDS011;5748;53.102;8.456;2022-12-31T01:47:26;1.50;;;1.40;;
11386;SDS011;5748;53.102;8.456;2022-12-31T01:50:02;1.33;;;1.23;;
11386;SDS011;5748;53.102;8.456;2022-12-31T01:52:43;1.50;;;1.40;;
11386;SDS011;5748;53.102;8.456;2022-12-31T01:55:15;1.50;;;1.40;;
11386;SDS011;5748;53.102;8.456;2022-12-31T01:57:47;1.40;;;1.30;;
11386;SDS011;5748;53.102;8.456;2022-12-31T02:00:19;1.77;;;1.47;;
11386;SDS011;5748;53.102;8.456;2022-12-31T02:02:46;1.40;;;1.30;;
11386;SDS011;5748;53.102;8.456;2022-12-31T02:05:17;1.70;;;1.40;;
11386;SDS011;5748;53.102;8.456;2022-12-31T02:07:50;1.77;;;1.60;;
11386;SDS011;5748;53.102;8.456;2022-12-31T02:10:18;1.40;;;1.30;;
11386;SDS011;5748;53.102;8.456;2022-12-31T02:12:45;1.47;;;1.37;;
11386;SDS011;5748;53.102;8.456;2022-12-31T02:15:14;1.47;;;1.37;;
11386;SDS011;5748;53.102;8.456;2022-12-31T02:17:45;1.17;;;1.07;;
11386;SDS011;5748;53.102;8.456;2022-12-31T02:23:30;1.10;;;1.00;;
11386;SDS011;5748;53.102;8.456;2022-12-31T02:26:52;1.10;;;1.07;;
11386;SDS011;5748;53.102;8.456;2022-12-31T02:29:34;1.23;;;1.07;;
11386;SDS011;5748;53.102;8.456;2022-12-31T02:32:37;1.10;;;1.00;;
11386;SDS011;5748;53.102;8.456;2022-12-31T02:35:21;1.23;;;1.17;;
11386;SDS011;5748;53.102;8.456;2022-12-31T02:37:57;1.10;;;1.00;;
11386;SDS011;5748;53.102;8.456;2022-12-31T02:40:32;1.20;;;1.10;;
11386;SDS011;5748;53.102;8.456;2022-12-31T02:43:01;1.07;;;1.00;;
11386;SDS011;5748;53.102;8.456;2022-12-31T02:45:30;0.93;;;0.93;;
11386;SDS011;5748;53.102;8.456;2022-12-31T02:48:06;1.17;;;1.07;;
11386;SDS011;5748;53.102;8.456;2022-12-31T02:50:48;1.03;;;1.03;;
11386;SDS011;5748;53.102;8.456;2022-12-31T02:53:39;0.90;;;0.90;;
11386;SDS011;5748;53.102;8.456;2022-12-31T02:56:29;0.87;;;0.87;;
11386;SDS011;5748;53.102;8.456;2022-12-31T02:59:02;0.90;;;0.90;;
11386;SDS011;5748;53.102;8.456;2022-12-31T03:01:54;0.80;;;0.80;;
11386;SDS011;5748;53.102;8.456;2022-12-31T03:04:40;0.80;;;0.80;;
11386;SDS011;5748;53.102;8.456;2022-12-31T03:07:20;1.30;;;0.80;;
11386;SDS011;5748;53.102;8.456;2022-12-31T03:09:49;0.90;;;0.90;;
11386;SDS011;5748;53.102;8.456;2022-12-31T03:12:17;0.70;;;0.70;;
11386;SDS011;5748;53.102;8.456;2022-12-31T03:15:05;0.60;;;0.60;;
11386;SDS011;5748;53.102;8.456;2022-12-31T03:17:45;0.60;;;0.60;;
11386;SDS011;5748;53.102;8.456;2022-12-31T03:20:29;0.90;;;0.80;;
11386;SDS011;5748;53.102;8.456;2022-12-31T03:23:36;0.77;;;0.70;;
11386;SDS011;5748;53.102;8.456;2022-12-31T03:26:21;0.77;;;0.70;;
11386;SDS011;5748;53.102;8.456;2022-12-31T03:28:47;0.70;;;0.70;;
11386;SDS011;5748;53.102;8.456;2022-12-31T03:31:14;0.70;;;0.70;;
11386;SDS011;5748;53.102;8.456;2022-12-31T03:33:43;0.60;;;0.60;;
11386;SDS011;5748;53.102;8.456;2022-12-31T03:36:11;0.70;;;0.70;;
11386;SDS011;5748;53.102;8.456;2022-12-31T03:38:40;0.50;;;0.50;;
11386;SDS011;5748;53.102;8.456;2022-12-31T03:41:16;0.60;;;0.60;;
11386;SDS011;5748;53.102;8.456;2022-12-31T03:46:29;0.60;;;0.60;;
11386;SDS011;5748;53.102;8.456;2022-12-31T03:48:58;0.60;;;0.60;;
11386;SDS011;5748;53.102;8.456;2022-12-31T03:51:25;0.50;;;0.50;;
11386;SDS011;5748;53.102;8.456;2022-12-31T03:53:53;0.70;;;0.70;;
11386;SDS011;5748;53.102;8.456;2022-12-31T03:56:19;0.50;;;0.50;;
11386;SDS011;5748;53.102;8.456;2022-12-31T03:58:46;0.40;;;0.40;;
11386;SDS011;5748;53.102;8.456;2022-12-31T04:03:44;0.50;;;0.50;;
11386;SDS011;5748;53.102;8.456;2022-12-31T04:06:12;0.50;;;0.50;;
11386;SDS011;5748;53.102;8.456;2022-12-31T04:08:39;0.50;;;0.50;;
11386;SDS011;5748;53.102;8.456;2022-12-31T04:11:06;0.40;;;0.40;;
11386;SDS011;5748;53.102;8.456;2022-12-31T04:13:33;0.37;;;0.37;;
11386;SDS011;5748;53.102;8.456;2022-12-31T04:16:00;0.50;;;0.50;;
11386;SDS011;5748;53.102;8.456;2022-12-31T04:18:27;0.60;;;0.60;;
11386;SDS011;5748;53.102;8.456;2022-12-31T04:20:59;0.60;;;0.60;;
11386;SDS011;5748;53.102;8.456;2022-12-31T04:23:28;0.60;;;0.60;;
11386;SDS011;5748;53.102;8.456;2022-12-31T04:25:55;0.70;;;0.70;;
11386;SDS011;5748;53.102;8.456;2022-12-31T04:28:22;0.60;;;0.60;;
11386;SDS011;5748;53.102;8.456;2022-12-31T04:30:57;1.13;;;0.80;;
11386;SDS011;5748;53.102;8.456;2022-12-31T04:36:23;0.60;;;0.60;;
11386;SDS011;5748;53.102;8.456;2022-12-31T04:38:52;0.50;;;0.50;;
11386;SDS011;5748;53.102;8.456;2022-12-31T04:43:57;0.50;;;0.50;;
11386;SDS011;5748;53.102;8.456;2022-12-31T04:46:25;0.40;;;0.40;;
11386;SDS011;5748;53.102;8.456;2022-12-31T04:48:55;0.40;;;0.40;;
11386;SDS011;5748;53.102;8.456;2022-12-31T04:51:28;0.50;;;0.50;;
11386;SDS011;5748;53.102;8.456;2022-12-31T04:53:58;0.40;;;0.40;;
11386;SDS011;5748;53.102;8.456;2022-12-31T04:56:25;0.33;;;0.33;;
11386;SDS011;5748;53.102;8.456;2022-12-31T04:58:52;0.33;;;0.30;;
11386;SDS011;5748;53.102;8.456;2022-12-31T05:01:20;0.40;;;0.40;;
11386;SDS011;5748;53.102;8.456;2022-12-31T05:03:54;0.63;;;0.30;;
11386;SDS011;5748;53.102;8.456;2022-12-31T05:06:22;0.30;;;0.30;;
11386;SDS011;5748;53.102;8.456;2022-12-31T05:09:09;0.37;;;0.37;;
11386;SDS011;5748;53.102;8.456;2022-12-31T05:11:43;0.40;;;0.40;;
11386;SDS011;5748;53.102;8.456;2022-12-31T05:14:09;0.30;;;0.30;;
11386;SDS011;5748;53.102;8.456;2022-12-31T05:16:36;0.40;;;0.40;;
11386;SDS011;5748;53.102;8.456;2022-12-31T05:19:03;0.40;;;0.40;;
11386;SDS011;5748;53.102;8.456;2022-12-31T05:21:34;0.30;;;0.30;;
11386;SDS011;5748;53.102;8.456;2022-12-31T05:24:01;0.40;;;0.40;;
11386;SDS011;5748;53.102;8.456;2022-12-31T05:26:30;0.37;;;0.37;;
11386;SDS011;5748;53.102;8.456;2022-12-31T05:28:57;0.40;;;0.40;;
11386;SDS011;5748;53.102;8.456;2022-12-31T05:34:14;0.50;;;0.50;;
11386;SDS011;5748;53.102;8.456;2022-12-31T05:36:41;0.63;;;0.40;;
11386;SDS011;5748;53.102;8.456;2022-12-31T05:39:08;0.40;;;0.40;;
11386;SDS011;5748;53.102;8.456;2022-12-31T05:41:38;0.40;;;0.40;;
11386;SDS011;5748;53.102;8.456;2022-12-31T05:44:04;0.40;;;0.40;;
11386;SDS011;5748;53.102;8.456;2022-12-31T05:49:30;0.40;;;0.40;;
11386;SDS011;5748;53.102;8.456;2022-12-31T05:51:57;0.37;;;0.37;;
11386;SDS011;5748;53.102;8.456;2022-12-31T05:54:24;0.40;;;0.40;;
11386;SDS011;5748;53.102;8.456;2022-12-31T05:56:58;0.40;;;0.40;;
11386;SDS011;5748;53.102;8.456;2022-12-31T05:59:25;0.50;;;0.50;;
11386;SDS011;5748;53.102;8.456;2022-12-31T06:02:00;0.80;;;0.70;;
11386;SDS011;5748;53.102;8.456;2022-12-31T06:04:33;0.70;;;0.70;;
11386;SDS011;5748;53.102;8.456;2022-12-31T06:07:00;0.60;;;0.60;;
11386;SDS011;5748;53.102;8.456;2022-12-31T06:09:42;0.80;;;0.80;;
11386;SDS011;5748;53.102;8.456;2022-12-31T06:12:10;0.80;;;0.80;;
11386;SDS011;5748;53.102;8.456;2022-12-31T06:14:37;0.70;;;0.70;;
11386;SDS011;5748;53.102;8.456;2022-12-31T06:17:05;1.67;;;0.90;;
11386;SDS011;5748;53.102;8.456;2022-12-31T06:19:32;0.70;;;0.70;;
11386;SDS011;5748;53.102;8.456;2022-12-31T06:22:00;0.70;;;0.70;;
11386;SDS011;5748;53.102;8.456;2022-12-31T06:24:27;0.70;;;0.70;;
11386;SDS011;5748;53.102;8.456;2022-12-31T06:26:56;0.80;;;0.80;;
11386;SDS011;5748;53.102;8.456;2022-12-31T06:29:24;0.60;;;0.60;;
11386;SDS011;5748;53.102;8.456;2022-12-31T06:31:51;0.93;;;0.90;;
11386;SDS011;5748;53.102;8.456;2022-12-31T06:34:18;0.73;;;0.73;;
11386;SDS011;5748;53.102;8.456;2022-12-31T06:36:45;0.80;;;0.80;;
11386;SDS011;5748;53.102;8.456;2022-12-31T06:39:12;0.80;;;0.80;;
11386;SDS011;5748;53.102;8.456;2022-12-31T06:41:39;0.90;;;0.90;;
11386;SDS011;5748;53.102;8.456;2022-12-31T06:44:12;0.90;;;0.90;;
11386;SDS011;5748;53.102;8.456;2022-12-31T06:46:40;0.70;;;0.70;;
11386;SDS011;5748;53.102;8.456;2022-12-31T06:49:11;0.70;;;0.70;;
11386;SDS011;5748;53.102;8.456;2022-12-31T06:51:38;0.50;;;0.50;;
11386;SDS011;5748;53.102;8.456;2022-12-31T06:54:06;0.60;;;0.60;;
11386;SDS011;5748;53.102;8.456;2022-12-31T06:56:34;0.40;;;0.40;;
11386;SDS011;5748;53.102;8.456;2022-12-31T07:05:27;0.73;;;0.50;;
11386;SDS011;5748;53.102;8.456;2022-12-31T07:08:05;0.63;;;0.50;;
11386;SDS011;5748;53.102;8.456;2022-12-31T07:10:46;0.40;;;0.40;;
11386;SDS011;5748;53.102;8.456;2022-12-31T07:13:21;0.50;;;0.50;;
11386;SDS011;5748;53.102;8.456;2022-12-31T07:16:09;0.50;;;0.50;;
11386;SDS011;5748;53.102;8.456;2022-12-31T07:18:51;0.60;;;0.60;;
11386;SDS011;5748;53.102;8.456;2022-12-31T07:21:28;0.60;;;0.60;;
11386;SDS011;5748;53.102;8.456;2022-12-31T07:24:00;0.60;;;0.60;;
11386;SDS011;5748;53.102;8.456;2022-12-31T07:26:31;0.70;;;0.70;;
11386;SDS011;5748;53.102;8.456;2022-12-31T07:29:16;0.70;;;0.70;;
11386;SDS011;5748;53.102;8.456;2022-12-31T07:34:54;0.90;;;0.90;;
11386;SDS011;5748;53.102;8.456;2022-12-31T07:37:29;0.83;;;0.83;;
11386;SDS011;5748;53.102;8.456;2022-12-31T07:40:08;0.90;;;0.90;;
11386;SDS011;5748;53.102;8.456;2022-12-31T07:42:55;1.23;;;1.00;;
11386;SDS011;5748;53.102;8.456;2022-12-31T07:45:32;0.80;;;0.80;;
11386;SDS011;5748;53.102;8.456;2022-12-31T07:48:12;0.87;;;0.87;;
11386;SDS011;5748;53.102;8.456;2022-12-31T07:53:49;0.80;;;0.80;;
11386;SDS011;5748;53.102;8.456;2022-12-31T07:56:16;0.90;;;0.90;;
11386;SDS011;5748;53.102;8.456;2022-12-31T07:58:49;1.10;;;1.10;;
11386;SDS011;5748;53.102;8.456;2022-12-31T08:01:29;0.90;;;0.90;;
11386;SDS011;5748;53.102;8.456;2022-12-31T08:04:06;1.13;;;1.10;;
11386;SDS011;5748;53.102;8.456;2022-12-31T08:06:45;1.00;;;1.00;;
11386;SDS011;5748;53.102;8.456;2022-12-31T08:09:33;1.00;;;1.00;;
11386;SDS011;5748;53.102;8.456;2022-12-31T08:12:08;1.40;;;1.30;;
11386;SDS011;5748;53.102;8.456;2022-12-31T08:14:36;1.30;;;1.20;;
11386;SDS011;5748;53.102;8.456;2022-12-31T08:17:10;1.37;;;1.30;;
11386;SDS011;5748;53.102;8.456;2022-12-31T08:19:39;1.50;;;1.40;;
11386;SDS011;5748;53.102;8.456;2022-12-31T08:22:16;1.50;;;1.40;;
11386;SDS011;5748;53.102;8.456;2022-12-31T08:25:07;1.30;;;1.20;;
11386;SDS011;5748;53.102;8.456;2022-12-31T08:27:45;1.40;;;1.30;;
11386;SDS011;5748;53.102;8.456;2022-12-31T08:30:23;1.03;;;1.03;;
11386;SDS011;5748;53.102;8.456;2022-12-31T08:33:08;2.10;;;1.30;;
11386;SDS011;5748;53.102;8.456;2022-12-31T08:35:46;1.33;;;1.23;;
11386;SDS011;5748;53.102;8.456;2022-12-31T08:38:31;1.70;;;1.60;;
11386;SDS011;5748;53.102;8.456;2022-12-31T08:41:07;1.40;;;1.30;;
11386;SDS011;5748;53.102;8.456;2022-12-31T08:43:52;1.20;;;1.10;;
11386;SDS011;5748;53.102;8.456;2022-12-31T08:46:37;1.17;;;1.10;;
11386;SDS011;5748;53.102;8.456;2022-12-31T08:49:12;1.10;;;1.10;;
11386;SDS011;5748;53.102;8.456;2022-12-31T08:54:14;1.30;;;1.20;;
11386;SDS011;5748;53.102;8.456;2022-12-31T08:56:43;1.10;;;1.10;;
11386;SDS011;5748;53.102;8.456;2022-12-31T08:59:28;1.40;;;1.30;;
11386;SDS011;5748;53.102;8.456;2022-12-31T09:11:42;1.20;;;1.20;;
11386;SDS011;5748;53.102;8.456;2022-12-31T09:20:23;1.10;;;1.10;;
11386;SDS011;5748;53.102;8.456;2022-12-31T09:22:55;0.90;;;0.90;;
11386;SDS011;5748;53.102;8.456;2022-12-31T09:28:57;1.27;;;1.17;;
11386;SDS011;5748;53.102;8.456;2022-12-31T09:31:48;1.03;;;1.03;;
11386;SDS011;5748;53.102;8.456;2022-12-31T09:34:25;1.03;;;1.03;;
11386;SDS011;5748;53.102;8.456;2022-12-31T09:37:02;0.97;;;0.97;;
11386;SDS011;5748;53.102;8.456;2022-12-31T09:42:56;0.90;;;0.90;;
11386;SDS011;5748;53.102;8.456;2022-12-31T09:52:31;0.60;;;0.60;;
11386;SDS011;5748;53.102;8.456;2022-12-31T09:58:15;0.60;;;0.50;;
11386;SDS011;5748;53.102;8.456;2022-12-31T10:01:06;0.60;;;0.60;;
11386;SDS011;5748;53.102;8.456;2022-12-31T10:04:00;0.60;;;0.60;;
11386;SDS011;5748;53.102;8.456;2022-12-31T10:07:18;0.50;;;0.50;;
11386;SDS011;5748;53.102;8.456;2022-12-31T10:10:08;0.40;;;0.40;;
11386;SDS011;5748;53.102;8.456;2022-12-31T10:19:22;0.40;;;0.40;;
11386;SDS011;5748;53.102;8.456;2022-12-31T10:25:31;0.30;;;0.30;;
11386;SDS011;5748;53.102;8.456;2022-12-31T10:28:17;0.40;;;0.40;;
11386;SDS011;5748;53.102;8.456;2022-12-31T10:33:54;0.40;;;0.40;;
11386;SDS011;5748;53.102;8.456;2022-12-31T10:36:46;0.37;;;0.37;;
11386;SDS011;5748;53.102;8.456;2022-12-31T10:39:28;0.27;;;0.27;;
11386;SDS011;5748;53.102;8.456;2022-12-31T10:42:27;1.00;;;0.40;;
11386;SDS011;5748;53.102;8.456;2022-12-31T10:52:04;0.30;;;0.30;;
11386;SDS011;5748;53.102;8.456;2022-12-31T10:55:06;0.30;;;0.30;;
11386;SDS011;5748;53.102;8.456;2022-12-31T11:01:34;0.40;;;0.40;;
11386;SDS011;5748;53.102;8.456;2022-12-31T11:07:49;0.40;;;0.40;;
11386;SDS011;5748;53.102;8.456;2022-12-31T11:10:35;0.30;;;0.30;;
11386;SDS011;5748;53.102;8.456;2022-12-31T11:16:43;0.30;;;0.30;;
11386;SDS011;5748;53.102;8.456;2022-12-31T11:19:28;0.40;;;0.40;;
11386;SDS011;5748;53.102;8.456;2022-12-31T11:22:11;0.40;;;0.40;;
11386;SDS011;5748;53.102;8.456;2022-12-31T11:25:00;0.40;;;0.40;;
11386;SDS011;5748;53.102;8.456;2022-12-31T11:27:53;0.37;;;0.37;;
11386;SDS011;5748;53.102;8.456;2022-12-31T11:30:53;0.40;;;0.40;;
11386;SDS011;5748;53.102;8.456;2022-12-31T11:33:40;0.40;;;0.40;;
11386;SDS011;5748;53.102;8.456;2022-12-31T11:36:23;0.60;;;0.60;;
11386;SDS011;5748;53.102;8.456;2022-12-31T11:39:15;0.87;;;0.47;;
11386;SDS011;5748;53.102;8.456;2022-12-31T11:42:00;0.50;;;0.50;;
11386;SDS011;5748;53.102;8.456;2022-12-31T11:44:43;0.40;;;0.40;;
11386;SDS011;5748;53.102;8.456;2022-12-31T11:47:22;0.40;;;0.40;;
11386;SDS011;5748;53.102;8.456;2022-12-31T11:50:29;0.70;;;0.40;;
11386;SDS011;5748;53.102;8.456;2022-12-31T11:53:14;0.50;;;0.50;;
11386;SDS011;5748;53.102;8.456;2022-12-31T11:56:04;0.70;;;0.37;;
11386;SDS011;5748;53.102;8.456;2022-12-31T11:58:43;0.40;;;0.40;;
11386;SDS011;5748;53.102;8.456;2022-12-31T12:01:14;0.50;;;0.50;;
11386;SDS011;5748;53.102;8.456;2022-12-31T12:03:45;0.50;;;0.50;;
11386;SDS011;5748;53.102;8.456;2022-12-31T12:06:15;0.60;;;0.60;;
11386;SDS011;5748;53.102;8.456;2022-12-31T12:08:44;0.50;;;0.50;;
11386;SDS011;5748;53.102;8.456;2022-12-31T12:11:14;0.57;;;0.57;;
11386;SDS011;5748;53.102;8.456;2022-12-31T12:13:46;0.43;;;0.43;;
11386;SDS011;5748;53.102;8.456;2022-12-31T12:16:13;0.40;;;0.40;;
11386;SDS011;5748;53.102;8.456;2022-12-31T12:18:41;0.50;;;0.50;;
11386;SDS011;5748;53.102;8.456;2022-12-31T12:21:11;0.50;;;0.50;;
11386;SDS011;5748;53.102;8.456;2022-12-31T12:23:52;0.60;;;0.60;;
11386;SDS011;5748;53.102;8.456;2022-12-31T12:26:31;0.50;;;0.50;;
11386;SDS011;5748;53.102;8.456;2022-12-31T12:29:07;0.40;;;0.40;;
11386;SDS011;5748;53.102;8.456;2022-12-31T12:31:36;0.30;;;0.30;;
11386;SDS011;5748;53.102;8.456;2022-12-31T12:34:04;0.40;;;0.40;;
11386;SDS011;5748;53.102;8.456;2022-12-31T12:36:32;0.70;;;0.70;;
11386;SDS011;5748;53.102;8.456;2022-12-31T12:39:02;0.57;;;0.57;;
11386;SDS011;5748;53.102;8.456;2022-12-31T12:41:33;0.50;;;0.50;;
11386;SDS011;5748;53.102;8.456;2022-12-31T12:44:01;0.50;;;0.50;;
11386;SDS011;5748;53.102;8.456;2022-12-31T12:46:30;0.60;;;0.60;;
11386;SDS011;5748;53.102;8.456;2022-12-31T12:49:00;0.60;;;0.60;;
11386;SDS011;5748;53.102;8.456;2022-12-31T12:54:41;0.63;;;0.63;;
11386;SDS011;5748;53.102;8.456;2022-12-31T12:57:29;0.60;;;0.60;;
11386;SDS011;5748;53.102;8.456;2022-12-31T13:00:13;0.60;;;0.60;;
11386;SDS011;5748;53.102;8.456;2022-12-31T13:06:11;0.60;;;0.60;;
11386;SDS011;5748;53.102;8.456;2022-12-31T13:08:59;0.67;;;0.60;;
11386;SDS011;5748;53.102;8.456;2022-12-31T13:11:40;0.57;;;0.57;;
11386;SDS011;5748;53.102;8.456;2022-12-31T13:14:22;0.50;;;0.50;;
11386;SDS011;5748;53.102;8.456;2022-12-31T13:16:58;0.50;;;0.50;;
11386;SDS011;5748;53.102;8.456;2022-12-31T13:19:54;0.60;;;0.60;;
11386;SDS011;5748;53.102;8.456;2022-12-31T13:22:31;0.63;;;0.63;;
11386;SDS011;5748;53.102;8.456;2022-12-31T13:25:04;0.70;;;0.70;;
11386;SDS011;5748;53.102;8.456;2022-12-31T13:27:47;0.70;;;0.70;;
11386;SDS011;5748;53.102;8.456;2022-12-31T13:30:19;1.00;;;0.70;;
11386;SDS011;5748;53.102;8.456;2022-12-31T13:32:49;0.93;;;0.80;;
11386;SDS011;5748;53.102;8.456;2022-12-31T13:35:24;1.53;;;0.73;;
11386;SDS011;5748;53.102;8.456;2022-12-31T13:37:57;0.60;;;0.60;;
11386;SDS011;5748;53.102;8.456;2022-12-31T13:40:29;0.70;;;0.70;;
11386;SDS011;5748;53.102;8.456;2022-12-31T13:43:12;0.70;;;0.67;;
11386;SDS011;5748;53.102;8.456;2022-12-31T13:45:45;0.70;;;0.70;;
11386;SDS011;5748;53.102;8.456;2022-12-31T13:48:28;0.67;;;0.67;;
11386;SDS011;5748;53.102;8.456;2022-12-31T13:51:02;0.60;;;0.60;;
11386;SDS011;5748;53.102;8.456;2022-12-31T13:53:38;0.70;;;0.60;;
11386;SDS011;5748;53.102;8.456;2022-12-31T13:56:15;0.60;;;0.60;;
11386;SDS011;5748;53.102;8.456;2022-12-31T13:58:50;0.60;;;0.60;;
11386;SDS011;5748;53.102;8.456;2022-12-31T14:01:25;0.60;;;0.60;;
11386;SDS011;5748;53.102;8.456;2022-12-31T14:04:01;0.60;;;0.60;;
11386;SDS011;5748;53.102;8.456;2022-12-31T14:06:36;0.60;;;0.50;;
11386;SDS011;5748;53.102;8.456;2022-12-31T14:09:11;0.70;;;0.70;;
11386;SDS011;5748;53.102;8.456;2022-12-31T14:11:48;0.60;;;0.50;;
11386;SDS011;5748;53.102;8.456;2022-12-31T14:14:40;0.57;;;0.57;;
11386;SDS011;5748;53.102;8.456;2022-12-31T14:17:18;0.63;;;0.60;;
11386;SDS011;5748;53.102;8.456;2022-12-31T14:19:59;0.60;;;0.60;;
11386;SDS011;5748;53.102;8.456;2022-12-31T14:22:38;0.40;;;0.40;;
11386;SDS011;5748;53.102;8.456;2022-12-31T14:25:16;0.50;;;0.50;;
11386;SDS011;5748;53.102;8.456;2022-12-31T14:27:53;0.50;;;0.50;;
11386;SDS011;5748;53.102;8.456;2022-12-31T14:30:24;0.50;;;0.50;;
11386;SDS011;5748;53.102;8.456;2022-12-31T14:33:14;0.40;;;0.40;;
11386;SDS011;5748;53.102;8.456;2022-12-31T14:36:14;0.50;;;0.40;;
11386;SDS011;5748;53.102;8.456;2022-12-31T14:38:49;0.40;;;0.40;;
11386;SDS011;5748;53.102;8.456;2022-12-31T14:41:46;0.50;;;0.50;;
11386;SDS011;5748;53.102;8.456;2022-12-31T14:44:31;0.40;;;0.40;;
11386;SDS011;5748;53.102;8.456;2022-12-31T14:47:15;0.50;;;0.50;;
11386;SDS011;5748;53.102;8.456;2022-12-31T14:49:55;0.83;;;0.70;;
11386;SDS011;5748;53.102;8.456;2022-12-31T14:52:32;0.67;;;0.67;;
11386;SDS011;5748;53.102;8.456;2022-12-31T14:55:10;0.77;;;0.60;;
11386;SDS011;5748;53.102;8.456;2022-12-31T14:57:55;0.60;;;0.60;;
11386;SDS011;5748;53.102;8.456;2022-12-31T15:00:28;0.63;;;0.63;;
11386;SDS011;5748;53.102;8.456;2022-12-31T15:03:01;0.63;;;0.63;;
11386;SDS011;5748;53.102;8.456;2022-12-31T15:05:33;0.63;;;0.63;;
11386;SDS011;5748;53.102;8.456;2022-12-31T15:08:06;0.80;;;0.80;;
11386;SDS011;5748;53.102;8.456;2022-12-31T15:10:52;2.47;;;1.23;;
11386;SDS011;5748;53.102;8.456;2022-12-31T15:13:43;1.50;;;1.10;;
11386;SDS011;5748;53.102;8.456;2022-12-31T15:16:36;1.33;;;1.00;;
11386;SDS011;5748;53.102;8.456;2022-12-31T15:22:23;1.30;;;1.00;;
11386;SDS011;5748;53.102;8.456;2022-12-31T15:25:01;1.10;;;1.00;;
11386;SDS011;5748;53.102;8.456;2022-12-31T15:27:43;1.57;;;0.90;;
11386;SDS011;5748;53.102;8.456;2022-12-31T15:30:28;1.87;;;1.00;;
11386;SDS011;5748;53.102;8.456;2022-12-31T15:33:03;0.93;;;0.90;;
11386;SDS011;5748;53.102;8.456;2022-12-31T15:35:43;0.90;;;0.90;;
11386;SDS011;5748;53.102;8.456;2022-12-31T15:41:12;1.50;;;1.10;;
11386;SDS011;5748;53.102;8.456;2022-12-31T15:43:53;0.97;;;0.80;;
11386;SDS011;5748;53.102;8.456;2022-12-31T15:46:27;1.17;;;0.80;;
11386;SDS011;5748;53.102;8.456;2022-12-31T15:48:59;1.13;;;0.80;;
11386;SDS011;5748;53.102;8.456;2022-12-31T15:51:31;1.23;;;0.90;;
11386;SDS011;5748;53.102;8.456;2022-12-31T15:54:09;1.00;;;0.77;;
11386;SDS011;5748;53.102;8.456;2022-12-31T15:56:48;1.03;;;0.90;;
11386;SDS011;5748;53.102;8.456;2022-12-31T15:59:16;1.07;;;0.97;;
11386;SDS011;5748;53.102;8.456;2022-12-31T16:01:46;1.57;;;0.90;;
11386;SDS011;5748;53.102;8.456;2022-12-31T16:04:15;0.80;;;0.80;;
11386;SDS011;5748;53.102;8.456;2022-12-31T16:06:46;1.10;;;0.93;;
11386;SDS011;5748;53.102;8.456;2022-12-31T16:09:19;1.20;;;1.00;;
11386;SDS011;5748;53.102;8.456;2022-12-31T16:11:50;1.07;;;0.87;;
11386;SDS011;5748;53.102;8.456;2022-12-31T16:14:19;1.03;;;0.93;;
11386;SDS011;5748;53.102;8.456;2022-12-31T16:16:51;1.70;;;1.37;;
11386;SDS011;5748;53.102;8.456;2022-12-31T16:19:29;1.40;;;1.30;;
11386;SDS011;5748;53.102;8.456;2022-12-31T16:22:01;3.40;;;2.87;;
11386;SDS011;5748;53.102;8.456;2022-12-31T16:24:34;2.20;;;2.00;;
11386;SDS011;5748;53.102;8.456;2022-12-31T16:27:04;1.70;;;1.60;;
11386;SDS011;5748;53.102;8.456;2022-12-31T16:29:33;1.67;;;1.50;;
11386;SDS011;5748;53.102;8.456;2022-12-31T16:32:02;2.00;;;1.47;;
11386;SDS011;5748;53.102;8.456;2022-12-31T16:34:34;1.97;;;1.57;;
11386;SDS011;5748;53.102;8.456;2022-12-31T16:37:04;1.40;;;1.30;;
11386;SDS011;5748;53.102;8.456;2022-12-31T16:39:40;1.70;;;1.30;;
11386;SDS011;5748;53.102;8.456;2022-12-31T16:42:44;1.80;;;1.40;;
11386;SDS011;5748;53.102;8.456;2022-12-31T16:45:16;1.80;;;1.50;;
11386;SDS011;5748;53.102;8.456;2022-12-31T16:47:54;1.73;;;1.40;;
11386;SDS011;5748;53.102;8.456;2022-12-31T16:50:22;1.30;;;1.20;;
11386;SDS011;5748;53.102;8.456;2022-12-31T16:52:54;1.67;;;1.40;;
11386;SDS011;5748;53.102;8.456;2022-12-31T16:55:27;1.67;;;1.57;;
11386;SDS011;5748;53.102;8.456;2022-12-31T16:57:56;1.70;;;1.50;;
11386;SDS011;5748;53.102;8.456;2022-12-31T17:00:28;1.90;;;1.40;;
11386;SDS011;5748;53.102;8.456;2022-12-31T17:03:02;1.60;;;1.50;;
11386;SDS011;5748;53.102;8.456;2022-12-31T17:08:39;2.17;;;1.50;;
11386;SDS011;5748;53.102;8.456;2022-12-31T17:11:25;1.40;;;1.30;;
11386;SDS011;5748;53.102;8.456;2022-12-31T17:13:59;2.10;;;1.47;;
11386;SDS011;5748;53.102;8.456;2022-12-31T17:16:43;1.83;;;1.33;;
11386;SDS011;5748;53.102;8.456;2022-12-31T17:19:25;3.17;;;1.40;;
11386;SDS011;5748;53.102;8.456;2022-12-31T17:22:03;2.93;;;1.47;;
11386;SDS011;5748;53.102;8.456;2022-12-31T17:24:35;1.50;;;1.40;;
11386;SDS011;5748;53.102;8.456;2022-12-31T17:27:06;1.67;;;1.27;;
11386;SDS011;5748;53.102;8.456;2022-12-31T17:29:34;1.20;;;1.10;;
11386;SDS011;5748;53.102;8.456;2022-12-31T17:32:02;1.43;;;1.33;;
11386;SDS011;5748;53.102;8.456;2022-12-31T17:34:31;3.23;;;1.23;;
11386;SDS011;5748;53.102;8.456;2022-12-31T17:37:02;2.97;;;1.30;;
11386;SDS011;5748;53.102;8.456;2022-12-31T17:39:42;2.13;;;1.40;;
11386;SDS011;5748;53.102;8.456;2022-12-31T17:42:14;1.87;;;1.43;;
11386;SDS011;5748;53.102;8.456;2022-12-31T17:44:53;1.43;;;1.30;;
11386;SDS011;5748;53.102;8.456;2022-12-31T17:47:30;1.63;;;1.33;;
11386;SDS011;5748;53.102;8.456;2022-12-31T17:50:04;2.20;;;1.60;;
11386;SDS011;5748;53.102;8.456;2022-12-31T17:52:43;1.90;;;1.40;;